createdAt,value
2022-09-06T00:01:14.014Z,19.26
2022-09-06T00:03:41.894Z,19.48
2022-09-06T00:06:11.753Z,19.44
2022-09-06T00:08:39.699Z,19.29
2022-09-06T00:11:08.274Z,19.45
2022-09-06T00:13:37.883Z,19.32
2022-09-06T00:16:08.071Z,19.52
2022-09-06T00:18:35.692Z,19.60
2022-09-06T00:21:04.271Z,19.11
2022-09-06T00:23:31.770Z,19.23
2022-09-06T00:26:06.012Z,19.28
2022-09-06T00:28:33.509Z,19.32
2022-09-06T00:31:10.557Z,19.26
2022-09-06T00:33:38.360Z,19.30
2022-09-06T00:36:06.450Z,19.47
2022-09-06T00:38:35.016Z,19.62
2022-09-06T00:41:02.836Z,19.83
2022-09-06T00:43:30.362Z,19.92
2022-09-06T00:45:58.338Z,19.88
2022-09-06T00:48:27.383Z,19.72
2022-09-06T00:50:58.066Z,19.62
2022-09-06T00:53:26.653Z,19.55
2022-09-06T00:55:55.648Z,19.50
2022-09-06T00:58:23.760Z,19.39
2022-09-06T01:00:51.790Z,19.24
2022-09-06T01:03:20.009Z,19.09
2022-09-06T01:05:58.739Z,18.82
2022-09-06T01:08:39.844Z,18.73
2022-09-06T01:11:24.324Z,18.49
2022-09-06T01:14:00.527Z,18.44
2022-09-06T01:16:38.268Z,18.28
2022-09-06T01:19:33.922Z,18.35
2022-09-06T01:22:15.220Z,18.17
2022-09-06T01:25:02.650Z,17.99
2022-09-06T01:28:05.249Z,17.51
2022-09-06T01:30:38.286Z,18.15
2022-09-06T01:33:15.160Z,18.25
2022-09-06T01:35:48.984Z,18.25
2022-09-06T01:38:17.509Z,18.18
2022-09-06T01:40:45.062Z,18.14
2022-09-06T01:43:21.184Z,18.01
2022-09-06T01:46:00.185Z,17.98
2022-09-06T01:48:36.974Z,17.98
2022-09-06T01:51:23.846Z,17.97
2022-09-06T01:54:08.504Z,17.62
2022-09-06T01:56:44.271Z,17.76
2022-09-06T01:59:40.443Z,17.80
2022-09-06T02:02:13.937Z,17.85
2022-09-06T02:04:45.938Z,17.78
2022-09-06T02:07:21.207Z,17.73
2022-09-06T02:09:55.776Z,17.77
2022-09-06T02:12:27.004Z,17.75
2022-09-06T02:14:59.305Z,17.71
2022-09-06T02:17:33.915Z,17.69
2022-09-06T02:20:06.267Z,17.62
2022-09-06T02:22:38.715Z,17.50
2022-09-06T02:25:10.026Z,17.46
2022-09-06T02:27:37.738Z,17.31
2022-09-06T02:30:07.813Z,17.33
2022-09-06T02:32:40.150Z,17.37
2022-09-06T02:35:13.811Z,17.32
2022-09-06T02:37:42.297Z,17.41
2022-09-06T02:40:11.704Z,17.40
2022-09-06T02:42:40.437Z,17.40
2022-09-06T02:45:10.543Z,17.36
2022-09-06T02:47:38.048Z,17.32
2022-09-06T02:50:06.617Z,17.21
2022-09-06T02:52:34.107Z,17.09
2022-09-06T02:55:01.580Z,17.17
2022-09-06T02:57:29.097Z,17.11
2022-09-06T02:59:56.594Z,16.89
2022-09-06T03:02:25.960Z,16.85
2022-09-06T03:04:53.517Z,17.02
2022-09-06T03:07:21.047Z,16.83
2022-09-06T03:09:48.539Z,17.11
2022-09-06T03:12:16.029Z,17.08
2022-09-06T03:14:43.507Z,17.18
2022-09-06T03:17:10.986Z,17.19
2022-09-06T03:19:39.825Z,17.11
2022-09-06T03:22:07.327Z,17.13
2022-09-06T03:24:34.809Z,16.89
2022-09-06T03:27:02.321Z,17.00
2022-09-06T03:29:29.807Z,17.06
2022-09-06T03:31:57.295Z,17.06
2022-09-06T03:34:24.795Z,16.97
2022-09-06T03:36:53.606Z,16.87
2022-09-06T03:39:21.241Z,16.85
2022-09-06T03:41:48.747Z,16.83
2022-09-06T03:44:16.241Z,16.85
2022-09-06T03:46:43.735Z,16.80
2022-09-06T03:49:11.243Z,16.79
2022-09-06T03:51:38.729Z,16.82
2022-09-06T03:54:07.641Z,16.76
2022-09-06T03:56:35.377Z,16.84
2022-09-06T03:59:02.867Z,16.86
2022-09-06T04:01:30.438Z,16.84
2022-09-06T04:03:58.001Z,16.82
2022-09-06T04:06:25.505Z,16.72
2022-09-06T04:08:53.006Z,16.67
2022-09-06T04:11:21.856Z,16.66
2022-09-06T04:13:49.355Z,16.61
2022-09-06T04:16:17.707Z,16.54
2022-09-06T04:18:45.552Z,16.54
2022-09-06T04:21:13.075Z,16.42
2022-09-06T04:23:40.804Z,16.60
2022-09-06T04:26:08.416Z,16.66
2022-09-06T04:28:37.283Z,16.71
2022-09-06T04:31:05.510Z,16.59
2022-09-06T04:33:34.540Z,16.61
2022-09-06T04:36:03.896Z,16.59
2022-09-06T04:38:35.396Z,16.69
2022-09-06T04:41:03.083Z,16.83
2022-09-06T04:43:30.571Z,16.88
2022-09-06T04:46:03.998Z,16.66
2022-09-06T04:48:31.511Z,16.73
2022-09-06T04:50:59.019Z,16.86
2022-09-06T04:53:26.511Z,17.13
2022-09-06T04:55:54.090Z,17.34
2022-09-06T04:58:21.616Z,17.94
2022-09-06T05:00:49.254Z,18.35
2022-09-06T05:03:18.123Z,18.83
2022-09-06T05:05:45.625Z,19.32
2022-09-06T05:08:13.102Z,19.87
2022-09-06T05:10:40.590Z,20.38
2022-09-06T05:13:08.324Z,20.68
2022-09-06T05:15:35.881Z,20.72
2022-09-06T05:18:04.780Z,20.69
2022-09-06T05:20:33.671Z,20.78
2022-09-06T05:23:01.564Z,20.90
2022-09-06T05:25:29.064Z,21.13
2022-09-06T05:27:56.605Z,21.26
2022-09-06T05:30:24.087Z,21.33
2022-09-06T05:32:52.125Z,21.51
2022-09-06T05:35:19.648Z,21.70
2022-09-06T05:37:48.517Z,21.96
2022-09-06T05:40:16.205Z,22.60
2022-09-06T05:42:43.719Z,23.61
2022-09-06T05:45:11.512Z,24.85
2022-09-06T05:47:39.078Z,25.89
2022-09-06T05:50:07.920Z,26.42
2022-09-06T05:52:36.272Z,26.99
2022-09-06T05:55:06.578Z,27.94
2022-09-06T05:57:34.142Z,28.67
2022-09-06T06:00:01.626Z,29.02
2022-09-06T06:02:29.153Z,29.51
2022-09-06T06:04:58.231Z,29.78
2022-09-06T06:07:25.828Z,29.64
2022-09-06T06:09:53.308Z,29.36
2022-09-06T06:12:22.148Z,29.37
2022-09-06T06:14:49.664Z,28.41
2022-09-06T06:17:17.321Z,27.39
2022-09-06T06:19:44.812Z,26.95
2022-09-06T06:22:12.296Z,26.99
2022-09-06T06:24:39.791Z,27.23
2022-09-06T06:27:07.315Z,26.87
2022-09-06T06:29:36.134Z,26.67
2022-09-06T06:32:04.214Z,26.46
2022-09-06T06:34:31.768Z,26.60
2022-09-06T06:36:59.903Z,27.01
2022-09-06T06:39:27.641Z,26.94
2022-09-06T06:41:55.596Z,25.43
2022-09-06T06:44:23.152Z,24.24
2022-09-06T06:46:52.052Z,24.70
2022-09-06T06:49:19.549Z,25.21
2022-09-06T06:51:47.045Z,25.65
2022-09-06T06:54:14.521Z,25.40
2022-09-06T06:56:42.260Z,24.91
2022-09-06T06:59:09.928Z,24.74
2022-09-06T07:01:38.579Z,24.64
2022-09-06T07:04:10.361Z,23.99
2022-09-06T07:12:24.577Z,25.19
2022-09-06T07:14:52.311Z,25.76
2022-09-06T07:17:19.800Z,25.81
2022-09-06T07:22:36.087Z,25.07
2022-09-06T07:25:03.874Z,25.28
2022-09-06T07:27:47.755Z,25.84
2022-09-06T07:30:16.559Z,25.69
2022-09-06T07:32:44.065Z,25.42
2022-09-06T07:35:13.780Z,25.11
2022-09-06T07:37:41.289Z,25.10
2022-09-06T07:40:10.278Z,24.11
2022-09-06T07:42:37.917Z,24.05
2022-09-06T07:45:05.926Z,23.94
2022-09-06T07:53:14.994Z,24.24
2022-09-06T07:55:45.149Z,24.14
2022-09-06T07:58:12.677Z,24.78
2022-09-06T08:00:41.110Z,25.60
2022-09-06T08:03:08.936Z,25.81
2022-09-06T08:11:13.561Z,24.41
2022-09-06T08:13:41.653Z,24.96
2022-09-06T08:16:11.325Z,25.49
2022-09-06T08:18:39.401Z,25.15
2022-09-06T08:21:12.603Z,25.53
2022-09-06T08:23:43.076Z,27.22
2022-09-06T08:26:10.611Z,28.02
2022-09-06T08:28:38.237Z,28.46
2022-09-06T08:31:07.378Z,28.28
2022-09-06T08:33:34.912Z,27.98
2022-09-06T08:36:02.703Z,27.44
2022-09-06T08:38:31.583Z,27.18
2022-09-06T08:41:09.696Z,28.17
2022-09-06T08:43:38.108Z,29.49
2022-09-06T08:46:08.730Z,29.98
2022-09-06T08:48:39.844Z,30.07
2022-09-06T08:51:38.539Z,30.39
2022-09-06T08:54:17.677Z,31.21
2022-09-06T08:57:04.265Z,31.65
2022-09-06T08:59:38.538Z,31.48
2022-09-06T09:02:12.450Z,31.40
2022-09-06T09:04:43.945Z,31.63
2022-09-06T09:07:30.672Z,31.67
2022-09-06T09:10:03.427Z,30.49
2022-09-06T09:12:37.863Z,31.36
2022-09-06T09:15:10.428Z,31.00
2022-09-06T09:17:38.237Z,30.70
2022-09-06T09:20:08.323Z,30.91
2022-09-06T09:22:36.332Z,29.92
2022-09-06T09:25:08.145Z,29.58
2022-09-06T09:27:37.693Z,29.38
2022-09-06T09:32:54.814Z,30.06
2022-09-06T09:35:27.973Z,30.38
2022-09-06T09:38:07.736Z,29.35
2022-09-06T09:40:41.673Z,29.24
2022-09-06T09:43:17.753Z,28.73
2022-09-06T09:45:46.170Z,28.70
2022-09-06T09:48:20.708Z,27.72
2022-09-06T09:50:48.736Z,27.69
2022-09-06T09:53:18.505Z,28.23
2022-09-06T09:55:47.653Z,29.08
2022-09-06T09:58:30.431Z,29.20
2022-09-06T10:01:13.099Z,29.05
2022-09-06T10:09:21.571Z,30.13
2022-09-06T10:11:55.840Z,30.45
2022-09-06T10:14:28.672Z,30.71
2022-09-06T10:16:56.538Z,30.52
2022-09-06T10:19:36.489Z,30.29
2022-09-06T10:22:14.872Z,30.34
2022-09-06T10:24:57.484Z,30.52
2022-09-06T10:27:28.577Z,30.48
2022-09-06T10:30:01.705Z,30.86
2022-09-06T10:32:41.246Z,31.67
2022-09-06T10:35:17.680Z,31.91
2022-09-06T10:38:07.520Z,31.73
2022-09-06T10:40:42.256Z,31.97
2022-09-06T10:43:18.384Z,31.53
2022-09-06T10:45:50.121Z,32.35
2022-09-06T10:48:22.590Z,32.40
2022-09-06T10:50:54.328Z,33.08
2022-09-06T10:53:35.637Z,33.69
2022-09-06T10:56:07.948Z,34.27
2022-09-06T11:01:37.720Z,34.51
2022-09-06T11:04:12.946Z,33.05
2022-09-06T11:06:46.479Z,32.64
2022-09-06T11:09:23.935Z,31.38
2022-09-06T11:11:59.571Z,31.69
2022-09-06T11:14:30.076Z,32.37
2022-09-06T11:17:01.700Z,33.12
2022-09-06T11:19:32.990Z,33.53
2022-09-06T11:22:30.069Z,34.77
2022-09-06T11:25:23.488Z,35.64
2022-09-06T11:27:58.148Z,35.66
2022-09-06T11:30:29.787Z,34.36
2022-09-06T11:33:11.246Z,34.54
2022-09-06T11:35:40.932Z,34.44
2022-09-06T11:38:24.168Z,34.84
2022-09-06T11:41:00.258Z,34.92
2022-09-06T11:43:49.310Z,33.45
2022-09-06T11:46:52.901Z,32.68
2022-09-06T11:49:37.267Z,33.15
2022-09-06T11:52:38.062Z,32.50
2022-09-06T11:55:11.342Z,32.81
2022-09-06T11:57:40.700Z,31.59
2022-09-06T12:00:18.260Z,32.32
2022-09-06T12:02:46.107Z,33.71
2022-09-06T12:05:29.734Z,33.24
2022-09-06T12:08:34.594Z,32.45
2022-09-06T12:11:05.577Z,32.17
2022-09-06T12:13:52.266Z,31.83
2022-09-06T12:16:20.726Z,32.79
2022-09-06T12:19:00.020Z,34.36
2022-09-06T12:21:42.153Z,35.78
2022-09-06T12:24:30.925Z,36.13
2022-09-06T12:27:15.613Z,35.15
2022-09-06T12:29:51.511Z,34.83
2022-09-06T12:32:23.264Z,35.22
2022-09-06T12:37:54.741Z,33.93
2022-09-06T12:40:23.949Z,33.39
2022-09-06T12:42:53.863Z,32.86
2022-09-06T12:45:27.234Z,32.94
2022-09-06T12:48:06.008Z,33.80
2022-09-06T12:50:34.080Z,33.77
2022-09-06T12:53:03.433Z,33.44
2022-09-06T12:55:33.079Z,33.84
2022-09-06T12:58:04.058Z,34.75
2022-09-06T13:00:35.408Z,34.08
2022-09-06T13:03:09.728Z,33.06
2022-09-06T13:05:40.298Z,32.69
2022-09-06T13:08:14.573Z,34.14
2022-09-06T13:10:44.456Z,34.36
2022-09-06T13:13:21.780Z,33.59
2022-09-06T13:15:49.571Z,33.67
2022-09-06T13:18:22.409Z,35.15
2022-09-06T13:21:00.037Z,36.35
2022-09-06T13:23:27.703Z,37.47
2022-09-06T13:25:56.235Z,37.56
2022-09-06T13:28:30.929Z,32.98
2022-09-06T13:31:08.915Z,33.07
2022-09-06T13:33:37.735Z,32.98
2022-09-06T13:36:09.313Z,33.51
2022-09-06T13:38:41.595Z,33.57
2022-09-06T13:41:37.810Z,33.72
2022-09-06T13:44:12.466Z,34.01
2022-09-06T13:46:39.999Z,33.87
2022-09-06T13:49:08.004Z,32.96
2022-09-06T13:51:35.835Z,32.88
2022-09-06T13:54:07.728Z,32.96
2022-09-06T13:56:35.801Z,32.65
2022-09-06T13:59:04.155Z,32.69
2022-09-06T14:01:33.487Z,32.14
2022-09-06T14:04:01.212Z,32.41
2022-09-06T14:06:29.078Z,32.13
2022-09-06T14:09:13.509Z,31.66
2022-09-06T14:11:47.472Z,31.98
2022-09-06T14:14:17.663Z,32.50
2022-09-06T14:16:47.509Z,33.44
2022-09-06T14:19:15.370Z,32.86
2022-09-06T14:21:43.223Z,32.62
2022-09-06T14:24:10.828Z,32.73
2022-09-06T14:26:38.618Z,32.39
2022-09-06T14:29:06.798Z,32.41
2022-09-06T14:31:34.577Z,33.26
2022-09-06T14:34:04.157Z,32.54
2022-09-06T14:36:33.345Z,33.09
2022-09-06T14:39:01.781Z,32.60
2022-09-06T14:41:29.852Z,33.03
2022-09-06T14:43:59.533Z,32.89
2022-09-06T14:46:28.215Z,33.67
2022-09-06T14:49:00.989Z,34.36
2022-09-06T14:51:31.136Z,34.38
2022-09-06T14:54:00.883Z,34.12
2022-09-06T14:56:28.384Z,33.48
2022-09-06T14:58:57.425Z,32.17
2022-09-06T15:01:27.297Z,31.36
2022-09-06T15:03:57.022Z,30.85
2022-09-06T15:06:26.055Z,30.78
2022-09-06T15:08:59.104Z,30.65
2022-09-06T15:11:31.377Z,30.89
2022-09-06T15:13:59.439Z,30.82
2022-09-06T15:16:27.412Z,30.81
2022-09-06T15:18:55.172Z,31.60
2022-09-06T15:21:23.321Z,32.67
2022-09-06T15:23:52.180Z,32.94
2022-09-06T15:26:21.664Z,32.70
2022-09-06T15:28:50.240Z,32.54
2022-09-06T15:31:19.452Z,32.13
2022-09-06T15:33:48.769Z,32.20
2022-09-06T15:36:16.890Z,31.78
2022-09-06T15:38:47.361Z,31.14
2022-09-06T15:41:16.756Z,31.59
2022-09-06T15:43:47.814Z,30.87
2022-09-06T15:46:16.262Z,30.43
2022-09-06T15:48:46.063Z,30.72
2022-09-06T15:51:15.899Z,30.15
2022-09-06T15:53:44.358Z,29.29
2022-09-06T15:56:14.888Z,29.61
2022-09-06T15:58:42.427Z,29.50
2022-09-06T16:01:13.417Z,29.32
2022-09-06T16:03:42.819Z,29.96
2022-09-06T16:06:28.649Z,30.05
2022-09-06T16:08:59.253Z,30.56
2022-09-06T16:11:27.975Z,30.95
2022-09-06T16:13:55.672Z,30.65
2022-09-06T16:16:24.595Z,30.10
2022-09-06T16:18:53.099Z,30.31
2022-09-06T16:21:23.940Z,30.37
2022-09-06T16:23:53.595Z,30.66
2022-09-06T16:26:22.037Z,30.35
2022-09-06T16:28:50.799Z,29.69
2022-09-06T16:31:18.865Z,29.71
2022-09-06T16:33:48.969Z,29.67
2022-09-06T16:36:17.263Z,29.57
2022-09-06T16:38:45.237Z,29.87
2022-09-06T16:41:15.548Z,29.50
2022-09-06T16:43:43.496Z,29.73
2022-09-06T16:46:12.050Z,29.78
2022-09-06T16:48:41.384Z,30.25
2022-09-06T16:51:11.597Z,30.65
2022-09-06T16:53:41.057Z,30.70
2022-09-06T16:56:09.189Z,31.22
2022-09-06T16:58:36.726Z,31.64
2022-09-06T17:01:04.268Z,31.95
2022-09-06T17:03:31.786Z,31.88
2022-09-06T17:05:59.264Z,31.73
2022-09-06T17:08:28.117Z,31.69
2022-09-06T17:10:55.633Z,31.89
2022-09-06T17:13:23.108Z,32.13
2022-09-06T17:16:11.360Z,31.90
2022-09-06T17:18:39.237Z,31.48
2022-09-06T17:21:07.534Z,31.33
2022-09-06T17:23:37.369Z,30.82
2022-09-06T17:26:06.119Z,30.52
2022-09-06T17:28:34.468Z,30.10
2022-09-06T17:31:03.802Z,29.70
2022-09-06T17:33:32.341Z,29.37
2022-09-06T17:36:07.874Z,29.04
2022-09-06T17:38:36.889Z,28.69
2022-09-06T17:41:04.907Z,28.29
2022-09-06T17:43:32.510Z,27.71
2022-09-06T17:46:00.186Z,27.74
2022-09-06T17:48:29.398Z,27.46
2022-09-06T17:50:57.108Z,27.12
2022-09-06T17:53:24.729Z,26.78
2022-09-06T17:55:53.739Z,26.40
2022-09-06T17:58:21.231Z,25.97
2022-09-06T18:00:48.741Z,25.93
2022-09-06T18:03:16.253Z,25.64
2022-09-06T18:05:45.180Z,25.52
2022-09-06T18:08:12.949Z,25.38
2022-09-06T18:10:40.459Z,25.20
2022-09-06T18:13:09.345Z,25.08
2022-09-06T18:15:41.515Z,25.04
2022-09-06T18:18:09.025Z,24.92
2022-09-06T18:20:36.935Z,24.82
2022-09-06T18:23:04.545Z,24.68
2022-09-06T18:25:32.052Z,24.55
2022-09-06T18:27:59.578Z,24.36
2022-09-06T18:30:28.491Z,24.21
2022-09-06T18:32:55.984Z,24.01
2022-09-06T18:35:23.595Z,23.51
2022-09-06T18:37:51.096Z,23.60
2022-09-06T18:40:18.640Z,23.63
2022-09-06T18:42:46.529Z,23.47
2022-09-06T18:45:14.126Z,23.34
2022-09-06T18:47:44.491Z,23.40
2022-09-06T18:50:12.552Z,23.40
2022-09-06T18:52:40.083Z,23.35
2022-09-06T18:55:08.420Z,23.30
2022-09-06T18:57:35.932Z,23.22
2022-09-06T19:00:05.159Z,23.20
2022-09-06T19:02:32.782Z,23.14
2022-09-06T19:05:01.702Z,22.93
2022-09-06T19:07:29.845Z,22.85
2022-09-06T19:09:57.724Z,22.85
2022-09-06T19:12:25.309Z,22.76
2022-09-06T19:14:52.840Z,22.79
2022-09-06T19:17:20.359Z,22.83
2022-09-06T19:19:47.842Z,22.72
2022-09-06T19:22:17.551Z,22.57
2022-09-06T19:24:45.286Z,22.40
2022-09-06T19:27:12.837Z,22.23
2022-09-06T19:29:40.418Z,22.23
2022-09-06T19:32:07.941Z,22.19
2022-09-06T19:34:35.478Z,22.11
2022-09-06T19:37:03.013Z,22.02
2022-09-06T19:39:36.851Z,21.99
2022-09-06T19:42:05.839Z,21.86
2022-09-06T19:44:33.486Z,21.48
2022-09-06T19:47:01.054Z,21.15
2022-09-06T19:49:30.577Z,21.09
2022-09-06T19:51:58.091Z,21.24
2022-09-06T19:54:25.748Z,21.36
2022-09-06T19:56:54.588Z,21.46
2022-09-06T19:59:22.107Z,21.55
2022-09-06T20:01:49.684Z,21.53
2022-09-06T20:04:17.218Z,21.27
2022-09-06T20:06:45.261Z,21.14
2022-09-06T20:09:13.201Z,21.26
2022-09-06T20:11:41.980Z,21.25
2022-09-06T20:14:11.722Z,21.23
2022-09-06T20:16:42.277Z,21.11
2022-09-06T20:19:10.706Z,20.96
2022-09-06T20:21:38.207Z,20.83
2022-09-06T20:24:05.999Z,20.91
2022-09-06T20:26:33.507Z,20.94
2022-09-06T20:29:03.267Z,20.92
2022-09-06T20:31:33.362Z,20.91
2022-09-06T20:34:02.883Z,20.87
2022-09-06T20:36:30.527Z,20.85
2022-09-06T20:38:58.266Z,20.83
2022-09-06T20:41:27.214Z,20.79
2022-09-06T20:43:56.137Z,20.55
2022-09-06T20:46:25.610Z,20.45
2022-09-06T20:48:57.172Z,20.52
2022-09-06T20:51:25.186Z,20.57
2022-09-06T20:53:56.327Z,20.56
2022-09-06T20:56:26.392Z,20.47
2022-09-06T20:58:55.892Z,20.51
2022-09-06T21:01:25.361Z,20.47
2022-09-06T21:03:56.394Z,20.49
2022-09-06T21:06:25.532Z,20.36
2022-09-06T21:08:53.627Z,20.13
2022-09-06T21:11:21.356Z,20.22
2022-09-06T21:13:50.324Z,20.27
2022-09-06T21:16:23.291Z,20.09
2022-09-06T21:18:54.079Z,20.14
2022-09-06T21:21:22.405Z,20.08
2022-09-06T21:23:50.330Z,20.03
2022-09-06T21:26:18.145Z,19.95
2022-09-06T21:28:47.050Z,19.95
2022-09-06T21:31:15.973Z,20.06
2022-09-06T21:33:46.153Z,20.15
2022-09-06T21:36:16.522Z,19.62
2022-09-06T21:38:45.390Z,19.53
2022-09-06T21:41:14.275Z,19.47
2022-09-06T21:43:42.612Z,18.60
2022-09-06T21:46:12.473Z,18.26
2022-09-06T21:48:40.488Z,18.56
2022-09-06T21:51:08.595Z,19.12
2022-09-06T21:53:38.216Z,19.36
2022-09-06T21:56:06.482Z,19.21
2022-09-06T21:58:34.604Z,19.01
2022-09-06T22:01:02.992Z,19.33
2022-09-06T22:03:31.765Z,19.63
2022-09-06T22:05:59.917Z,19.75
2022-09-06T22:08:27.454Z,19.55
2022-09-06T22:10:56.263Z,19.72
2022-09-06T22:13:23.804Z,19.72
2022-09-06T22:15:51.315Z,19.61
2022-09-06T22:18:18.879Z,19.57
2022-09-06T22:20:46.351Z,19.51
2022-09-06T22:23:13.855Z,19.43
2022-09-06T22:25:41.932Z,19.53
2022-09-06T22:28:10.776Z,19.53
2022-09-06T22:30:38.255Z,19.44
2022-09-06T22:33:05.767Z,19.41
2022-09-06T22:35:33.256Z,19.49
2022-09-06T22:38:00.795Z,19.46
2022-09-06T22:40:28.290Z,19.45
2022-09-06T22:42:55.789Z,19.36
2022-09-06T22:45:24.672Z,19.38
2022-09-06T22:47:52.163Z,19.38
2022-09-06T22:50:19.671Z,19.40
2022-09-06T22:52:47.279Z,19.42
2022-09-06T22:55:14.958Z,19.40
2022-09-06T22:57:42.513Z,19.35
2022-09-06T23:00:11.607Z,19.12
2022-09-06T23:02:40.459Z,19.14
2022-09-06T23:05:08.691Z,19.21
2022-09-06T23:07:36.620Z,19.31
2022-09-06T23:10:04.730Z,19.26
2022-09-06T23:12:32.252Z,19.15
2022-09-06T23:14:59.750Z,18.76
2022-09-06T23:17:27.289Z,19.08
2022-09-06T23:19:56.112Z,19.16
2022-09-06T23:22:23.631Z,19.21
2022-09-06T23:24:51.148Z,19.12
2022-09-06T23:27:18.760Z,19.02
2022-09-06T23:29:46.277Z,18.87
2022-09-06T23:32:13.968Z,18.62
2022-09-06T23:34:41.510Z,18.81
2022-09-06T23:37:10.391Z,19.06
2022-09-06T23:39:37.936Z,19.20
2022-09-06T23:42:05.520Z,19.26
2022-09-06T23:44:33.026Z,19.31
2022-09-06T23:47:00.545Z,19.31
2022-09-06T23:49:28.093Z,19.22
2022-09-06T23:51:55.622Z,19.03
2022-09-06T23:54:24.516Z,18.88
2022-09-06T23:56:51.998Z,19.09
2022-09-06T23:59:19.490Z,19.15
